Time;durP1;ratioP1;P1;durP2;ratioP2;P2;SDS_P1;SDS_P2;PMS_P1;PMS_P2;Temp;Humidity;BMP_temperature;BMP_pressure;BME280_temperature;BME280_humidity;BME280_pressure;Samples;Min_cycle;Max_cycle;Signal;HPM_P1;HPM_P2
2023/05/24 00:01:13;;;;;;;9.20;2.80;;;;;;;7.11;100.00;102438.03;4960621;28;20104;-77
2023/05/24 00:03:57;;;;;;;13.07;3.15;;;;;;;7.08;100.00;102438.03;4958509;28;20057;-76
2023/05/24 00:06:43;;;;;;;11.40;2.70;;;;;;;7.05;100.00;102431.06;4946423;28;20065;-76
2023/05/24 00:09:29;;;;;;;8.32;2.55;;;;;;;7.06;100.00;102424.00;4933433;28;20425;-77
2023/05/24 00:12:14;;;;;;;13.80;3.42;;;;;;;7.05;100.00;102431.06;4959452;28;20061;-76
2023/05/24 00:14:59;;;;;;;10.93;3.28;;;;;;;7.05;100.00;102427.53;4960626;28;20060;-77
2023/05/24 00:17:43;;;;;;;10.25;3.42;;;;;;;7.05;100.00;102435.44;4961124;28;20057;-76
2023/05/24 00:20:29;;;;;;;12.02;2.88;;;;;;;7.03;100.00;102424.03;4957951;28;20673;-76
2023/05/24 00:23:13;;;;;;;10.30;3.33;;;;;;;7.02;100.00;102427.53;4947740;28;20133;-77
2023/05/24 00:25:57;;;;;;;10.15;3.35;;;;;;;7.01;100.00;102421.41;4958562;28;20077;-77
2023/05/24 00:28:41;;;;;;;16.05;3.08;;;;;;;7.01;100.00;102421.41;4962187;28;20104;-77
2023/05/24 00:31:25;;;;;;;9.55;2.92;;;;;;;7.02;100.00;102422.25;4960609;28;20053;-77
2023/05/24 00:34:09;;;;;;;9.18;2.90;;;;;;;7.02;100.00;102424.91;4960559;28;20846;-77
2023/05/24 00:36:53;;;;;;;14.75;3.33;;;;;;;7.02;100.00;102427.53;4956770;28;20112;-77
2023/05/24 00:39:38;;;;;;;10.77;2.95;;;;;;;7.03;100.00;102427.53;4948204;28;20084;-76
2023/05/24 00:42:22;;;;;;;8.85;2.70;;;;;;;7.03;100.00;102426.69;4957145;28;20390;-77
2023/05/24 00:45:07;;;;;;;11.45;3.25;;;;;;;7.05;100.00;102428.41;4959926;28;20099;-76
2023/05/24 00:48:03;;;;;;;8.40;3.05;;;;;;;7.05;100.00;102412.63;4953556;28;20044;-77
2023/05/24 00:50:48;;;;;;;8.68;2.60;;;;;;;7.06;100.00;102422.25;4949492;28;20089;-77
2023/05/24 00:53:32;;;;;;;11.18;3.55;;;;;;;7.07;100.00;102415.22;4945977;28;20061;-77
2023/05/24 00:56:18;;;;;;;11.70;3.08;;;;;;;7.07;100.00;102420.50;4955555;28;20460;-77
2023/05/24 00:59:02;;;;;;;18.45;3.13;;;;;;;7.07;100.00;102425.75;4959556;28;20041;-78
2023/05/24 01:01:46;;;;;;;9.13;2.90;;;;;;;7.10;100.00;102424.88;4955483;28;20045;-76
2023/05/24 01:04:31;;;;;;;10.63;3.03;;;;;;;7.12;100.00;102423.97;4956258;28;20631;-77
2023/05/24 01:07:36;;;;;;;8.48;3.20;;;;;;;7.13;100.00;102422.22;4948368;28;20053;-76
2023/05/24 01:10:23;;;;;;;14.48;3.63;;;;;;;7.17;100.00;102431.84;4957340;28;20648;-77
2023/05/24 01:13:30;;;;;;;8.80;2.50;;;;;;;7.16;100.00;102430.09;4956091;28;20053;-76
2023/05/24 01:16:16;;;;;;;9.68;2.95;;;;;;;7.18;100.00;102439.75;4943051;28;20045;-76
2023/05/24 01:19:10;;;;;;;12.55;2.80;;;;;;;7.19;100.00;102430.06;4957339;28;20057;-77
2023/05/24 01:21:58;;;;;;;;;;;;;;;7.22;100.00;102429.19;4945333;28;20033;-77
2023/05/24 01:25:03;;;;;;;9.63;2.65;;;;;;;7.19;100.00;102425.69;4947293;28;19980;-77
2023/05/24 01:27:48;;;;;;;8.18;2.63;;;;;;;7.18;100.00;102413.41;4962627;28;20101;-78
2023/05/24 01:30:36;;;;;;;11.52;4.00;;;;;;;7.17;100.00;102416.03;4952842;28;20061;-77
2023/05/24 01:33:20;;;;;;;9.52;2.45;;;;;;;7.16;100.00;102420.47;4956769;28;20579;-76
2023/05/24 01:36:05;;;;;;;5.57;2.80;;;;;;;7.15;100.00;102418.69;4946692;28;20057;-77
2023/05/24 01:38:49;;;;;;;10.95;2.65;;;;;;;7.13;100.00;102420.47;4959902;28;20078;-76
2023/05/24 01:41:43;;;;;;;9.55;2.70;;;;;;;7.11;100.00;102414.34;4946458;28;20061;-76
2023/05/24 01:44:48;;;;;;;13.95;2.72;;;;;;;7.10;100.00;102414.34;4956868;28;20560;-77
2023/05/24 01:47:46;;;;;;;9.95;3.10;;;;;;;7.11;100.00;102416.06;4946218;28;20677;-76
2023/05/24 01:50:45;;;;;;;10.98;3.17;;;;;;;7.10;100.00;102399.41;4946503;28;20489;-76
2023/05/24 01:53:33;;;;;;;9.55;2.47;;;;;;;7.12;100.00;102400.28;4957656;28;20053;-76
2023/05/24 01:56:19;;;;;;;10.90;2.92;;;;;;;7.13;100.00;102401.16;4959439;28;20970;-76
2023/05/24 01:59:04;;;;;;;6.90;2.65;;;;;;;7.12;100.00;102400.28;4946671;28;20580;-77
2023/05/24 02:01:49;;;;;;;11.65;2.42;;;;;;;7.13;100.00;102395.91;4959436;28;20057;-77
2023/05/24 02:04:33;;;;;;;4.95;2.47;;;;;;;7.12;100.00;102400.28;4955857;28;20116;-76
2023/05/24 02:07:18;;;;;;;11.38;2.55;;;;;;;7.10;100.00;102396.78;4949724;28;20048;-76
2023/05/24 02:10:03;;;;;;;9.00;2.65;;;;;;;7.09;100.00;102387.13;4960144;28;20530;-76
2023/05/24 02:12:47;;;;;;;10.80;3.13;;;;;;;7.09;100.00;102388.88;4958634;28;20269;-76
2023/05/24 02:15:31;;;;;;;12.38;2.63;;;;;;;7.09;100.00;102392.41;4945666;28;20119;-77
2023/05/24 02:18:17;;;;;;;4.15;2.05;;;;;;;7.08;100.00;102385.34;4958264;28;20052;-76
2023/05/24 02:21:01;;;;;;;10.63;2.83;;;;;;;7.10;100.00;102393.25;4959337;28;20057;-77
2023/05/24 02:23:45;;;;;;;10.30;2.67;;;;;;;7.09;100.00;102391.53;4958519;28;20033;-77
2023/05/24 02:26:29;;;;;;;6.10;2.38;;;;;;;7.10;100.00;102388.00;4959553;28;20048;-75
2023/05/24 02:29:13;;;;;;;9.68;3.15;;;;;;;7.11;100.00;102387.09;4960476;28;20100;-76
2023/05/24 02:32:00;;;;;;;10.30;2.75;;;;;;;7.11;100.00;102390.63;4960984;28;20092;-76
2023/05/24 02:34:44;;;;;;;8.55;2.33;;;;;;;7.13;100.00;102394.13;4962292;28;20049;-77
2023/05/24 02:37:28;;;;;;;6.28;2.22;;;;;;;7.13;100.00;102394.13;4948471;28;22324;-76
2023/05/24 02:40:12;;;;;;;9.18;2.35;;;;;;;7.15;100.00;102387.06;4961991;28;20108;-77
2023/05/24 02:42:57;;;;;;;8.88;2.30;;;;;;;7.16;100.00;102383.59;4946684;28;20104;-77
2023/05/24 02:45:41;;;;;;;8.85;2.17;;;;;;;7.16;100.00;102380.94;4950484;28;20045;-77
2023/05/24 02:48:24;;;;;;;8.88;2.10;;;;;;;7.17;100.00;102381.81;4950153;28;20057;-76
2023/05/24 02:51:08;;;;;;;10.73;2.70;;;;;;;7.18;100.00;102375.63;4962158;28;20501;-76
2023/05/24 02:53:53;;;;;;;7.47;2.95;;;;;;;7.17;100.00;102380.06;4963475;28;20214;-76
2023/05/24 02:56:38;;;;;;;13.73;2.47;;;;;;;7.17;100.00;102379.16;4962515;28;20093;-77
2023/05/24 02:59:23;;;;;;;6.47;1.92;;;;;;;7.16;100.00;102375.69;4949118;28;21285;-77
2023/05/24 03:02:07;;;;;;;10.35;2.53;;;;;;;7.16;100.00;102375.69;4946017;28;20151;-77
2023/05/24 03:04:51;;;;;;;7.72;2.22;;;;;;;7.15;100.00;102373.91;4959981;28;20062;-76
2023/05/24 03:07:35;;;;;;;7.20;2.58;;;;;;;7.15;100.00;102371.25;4963374;28;20588;-77
2023/05/24 03:10:19;;;;;;;9.23;2.45;;;;;;;7.17;100.00;102373.91;4963313;28;20132;-76
2023/05/24 03:13:03;;;;;;;12.20;2.67;;;;;;;7.17;100.00;102374.78;4964064;28;20162;-77
2023/05/24 03:15:47;;;;;;;11.30;2.72;;;;;;;7.18;100.00;102370.38;4960976;28;20193;-77
2023/05/24 03:18:32;;;;;;;16.80;3.13;;;;;;;7.17;100.00;102368.63;4957913;28;20105;-77
2023/05/24 03:21:19;;;;;;;9.40;2.60;;;;;;;7.17;100.00;102377.41;4951109;28;20109;-77
2023/05/24 03:24:03;;;;;;;6.88;2.40;;;;;;;7.17;100.00;102374.78;4960249;28;20073;-76
2023/05/24 03:26:47;;;;;;;7.47;2.58;;;;;;;7.19;100.00;102377.38;4950733;28;20060;-76
2023/05/24 03:29:31;;;;;;;8.55;2.33;;;;;;;7.19;100.00;102378.28;4948765;28;20061;-77
2023/05/24 03:32:15;;;;;;;11.60;2.35;;;;;;;7.19;100.00;102375.63;4960066;28;20085;-77
2023/05/24 03:35:00;;;;;;;7.10;2.10;;;;;;;7.18;100.00;102373.91;4961244;28;20144;-77
2023/05/24 03:37:44;;;;;;;8.98;2.40;;;;;;;7.17;100.00;102377.41;4959530;28;20069;-78
2023/05/24 03:40:31;;;;;;;6.40;2.33;;;;;;;7.16;100.00;102373.03;4961137;28;20041;-77
2023/05/24 03:43:15;;;;;;;7.85;2.45;;;;;;;7.16;100.00;102370.41;4964590;28;20577;-77
2023/05/24 03:45:59;;;;;;;6.68;2.50;;;;;;;7.16;100.00;102375.69;4961455;28;20042;-78
2023/05/24 03:48:43;;;;;;;9.45;2.58;;;;;;;7.18;100.00;102378.28;4958095;28;21133;-77
2023/05/24 03:51:30;;;;;;;7.35;2.42;;;;;;;7.19;100.00;102370.38;4959053;28;20663;-76
2023/05/24 03:54:15;;;;;;;6.90;2.45;;;;;;;7.20;100.00;102374.75;4961111;28;20073;-77
2023/05/24 03:57:00;;;;;;;10.77;2.38;;;;;;;7.25;100.00;102377.34;4961167;28;21860;-76
2023/05/24 03:59:44;;;;;;;11.38;3.42;;;;;;;7.28;100.00;102373.81;4961274;28;20061;-77
2023/05/24 04:02:28;;;;;;;11.85;2.95;;;;;;;7.30;100.00;102372.06;4946708;28;20071;-77
2023/05/24 04:05:13;;;;;;;7.15;2.55;;;;;;;7.33;100.00;102385.22;4959243;28;20520;-77
2023/05/24 04:07:57;;;;;;;9.10;2.88;;;;;;;7.39;100.00;102377.25;4947980;28;20041;-77
2023/05/24 04:10:43;;;;;;;11.27;3.05;;;;;;;7.42;100.00;102374.59;4952248;28;20049;-77
2023/05/24 04:13:27;;;;;;;8.00;2.60;;;;;;;7.46;100.00;102372.81;4935793;28;20493;-78
2023/05/24 04:16:12;;;;;;;7.65;2.55;;;;;;;7.48;100.00;102374.53;4959204;28;20154;-77
2023/05/24 04:18:57;;;;;;;25.60;10.63;;;;;;;7.51;100.00;102373.66;4958567;28;20497;-77
2023/05/24 04:21:41;;;;;;;10.38;3.35;;;;;;;7.52;100.00;102379.81;4958218;28;20535;-77
2023/05/24 04:24:25;;;;;;;8.35;2.38;;;;;;;7.53;100.00;102374.53;4943994;28;20123;-77
2023/05/24 04:27:09;;;;;;;9.18;3.17;;;;;;;7.55;100.00;102372.75;4959560;28;20501;-77
2023/05/24 04:29:53;;;;;;;7.75;2.50;;;;;;;7.56;100.00;102376.25;4944972;28;20113;-77
2023/05/24 04:32:39;;;;;;;9.38;2.42;;;;;;;7.56;100.00;102373.59;4948460;28;20053;-77
2023/05/24 04:35:24;;;;;;;7.93;2.33;;;;;;;7.60;100.00;102372.72;4957437;28;20193;-77
2023/05/24 04:38:11;;;;;;;8.65;2.30;;;;;;;7.64;100.00;102370.91;4947464;28;20065;-77
2023/05/24 04:40:56;;;;;;;6.60;2.17;;;;;;;7.72;100.00;102377.00;4932426;28;20169;-77
2023/05/24 04:43:41;;;;;;;7.65;2.83;;;;;;;7.79;100.00;102373.41;4932722;28;20053;-77
2023/05/24 04:46:26;;;;;;;12.35;2.50;;;;;;;7.88;100.00;102373.34;4948663;28;20138;-76
2023/05/24 04:49:10;;;;;;;9.07;2.83;;;;;;;7.99;100.00;102380.25;4960133;28;20057;-77
2023/05/24 04:51:55;;;;;;;10.57;2.60;;;;;;;8.11;100.00;102381.88;4949214;28;20113;-77
2023/05/24 04:54:39;;;;;;;9.10;2.20;;;;;;;8.23;100.00;102384.41;4948174;28;20162;-76
2023/05/24 04:57:23;;;;;;;9.13;2.22;;;;;;;8.40;100.00;102380.72;4946407;28;20046;-76
2023/05/24 05:00:09;;;;;;;4.65;2.22;;;;;;;8.54;100.00;102388.47;4957978;28;20112;-77
2023/05/24 05:02:53;;;;;;;11.60;2.60;;;;;;;8.65;100.00;102389.25;4958857;28;20113;-76
2023/05/24 05:05:37;;;;;;;10.18;2.47;;;;;;;8.74;100.00;102393.53;4961631;28;20516;-77
2023/05/24 05:08:21;;;;;;;15.70;2.55;;;;;;;8.82;100.00;102391.66;4961369;28;20045;-76
2023/05/24 05:11:05;;;;;;;9.68;2.60;;;;;;;8.96;100.00;102396.75;4956564;28;20138;-76
2023/05/24 05:13:49;;;;;;;11.48;2.15;;;;;;;9.12;100.00;102391.25;4960459;28;20120;-76
2023/05/24 05:16:32;;;;;;;11.20;2.58;;;;;;;9.22;100.00;102398.13;4958592;28;20089;-76
2023/05/24 05:19:18;;;;;;;10.38;2.50;;;;;;;9.33;100.00;102400.63;4955976;28;20185;-77
2023/05/24 05:22:02;;;;;;;8.73;3.00;;;;;;;9.45;100.00;102409.25;4948503;28;20097;-76
2023/05/24 05:24:46;;;;;;;10.00;2.35;;;;;;;9.50;100.00;102404.78;4955926;28;20052;-76
2023/05/24 05:27:30;;;;;;;8.90;3.05;;;;;;;9.57;100.00;102413.47;4956358;28;20057;-77
2023/05/24 05:30:14;;;;;;;7.15;2.33;;;;;;;9.65;100.00;102411.59;4957972;28;20053;-75
2023/05/24 05:32:58;;;;;;;10.60;2.15;;;;;;;9.73;100.00;102414.09;4947405;28;20125;-76
2023/05/24 05:35:42;;;;;;;6.07;2.28;;;;;;;9.80;100.00;102415.75;4961532;28;20137;-74
2023/05/24 05:38:26;;;;;;;5.55;2.33;;;;;;;9.86;100.00;102420.94;4964216;28;21047;-74
2023/05/24 05:41:10;;;;;;;13.43;2.70;;;;;;;9.92;100.00;102419.97;4946946;28;20045;-75
2023/05/24 05:43:54;;;;;;;9.65;2.42;;;;;;;9.96;100.00;102413.69;4947152;28;20139;-76
2023/05/24 05:46:38;;;;;;;9.75;3.17;;;;;;;10.02;100.00;102415.38;4965863;28;20081;-76
2023/05/24 05:49:22;;;;;;;10.98;2.65;;;;;;;10.12;100.00;102416.94;4951899;28;20127;-77
2023/05/24 05:52:06;;;;;;;7.72;2.45;;;;;;;10.25;100.00;102419.38;4953176;28;20159;-75
2023/05/24 05:54:50;;;;;;;11.30;2.50;;;;;;;10.48;100.00;102423.38;4939573;28;20139;-75
2023/05/24 05:57:35;;;;;;;8.38;2.45;;;;;;;10.76;100.00;102422.81;4964644;28;20077;-76
2023/05/24 06:00:21;;;;;;;12.13;2.60;;;;;;;10.91;100.00;102421.63;4958934;28;20524;-77
2023/05/24 06:03:05;;;;;;;8.73;2.65;;;;;;;10.98;100.00;102424.09;4962196;28;20146;-76
2023/05/24 06:05:49;;;;;;;9.82;2.40;;;;;;;11.05;100.00;102435.44;4952411;28;20885;-76
2023/05/24 06:08:33;;;;;;;5.85;2.08;;;;;;;11.16;100.00;102432.53;4959730;28;20073;-76
2023/05/24 06:11:17;;;;;;;11.50;2.13;;;;;;;11.27;100.00;102434.94;4962312;28;21932;-77
2023/05/24 06:14:02;;;;;;;8.27;2.28;;;;;;;11.27;100.00;102435.81;4961626;28;20944;-74
2023/05/24 06:16:46;;;;;;;10.13;2.33;;;;;;;11.24;100.00;102429.72;4962806;28;20655;-75
2023/05/24 06:19:31;;;;;;;5.68;2.00;;;;;;;11.18;100.00;102435.16;4962037;28;20137;-74
2023/05/24 06:22:16;;;;;;;7.63;2.25;;;;;;;11.11;100.00;102439.75;4962907;28;20707;-75
2023/05/24 06:25:01;;;;;;;7.85;2.03;;;;;;;11.02;100.00;102431.97;4963387;28;20122;-75
2023/05/24 06:27:45;;;;;;;9.00;2.63;;;;;;;10.98;100.00;102425.88;4946680;28;20120;-74
2023/05/24 06:30:29;;;;;;;8.38;2.20;;;;;;;10.98;100.00;102429.41;4958912;28;20608;-76
2023/05/24 06:33:13;;;;;;;7.45;1.88;;;;;;;11.03;100.00;102431.06;4959060;28;20056;-75
2023/05/24 06:35:57;;;;;;;8.18;2.00;;;;;;;11.04;100.00;102435.47;4946434;28;20050;-75
2023/05/24 06:38:41;;;;;;;5.03;2.08;;;;;;;11.05;100.00;102431.94;4935177;28;20118;-76
2023/05/24 06:41:25;;;;;;;6.35;1.98;;;;;;;11.14;100.00;102442.31;4960540;28;20041;-76
2023/05/24 06:44:09;;;;;;;6.25;1.88;;;;;;;11.20;100.00;102420.97;4944728;28;20058;-79
2023/05/24 06:46:54;;;;;;;7.70;2.13;;;;;;;11.34;100.00;102425.94;4962485;28;21615;-77
2023/05/24 06:49:38;;;;;;;5.95;1.90;;;;;;;11.47;100.00;102438.91;4934320;28;20140;-76
2023/05/24 06:52:22;;;;;;;6.10;1.90;;;;;;;11.56;100.00;102436.06;4962157;28;20525;-76
2023/05/24 06:55:06;;;;;;;6.90;2.58;;;;;;;11.66;100.00;102436.72;4961265;28;20077;-75
2023/05/24 06:57:50;;;;;;;5.28;2.08;;;;;;;11.88;100.00;102430.84;4964847;28;20053;-76
2023/05/24 07:00:34;;;;;;;5.68;2.33;;;;;;;12.09;100.00;102440.06;4960582;28;20093;-76
2023/05/24 07:03:18;;;;;;;8.80;1.88;;;;;;;12.16;100.00;102438.97;4932349;28;20146;-76
2023/05/24 07:06:02;;;;;;;6.03;1.90;;;;;;;12.19;100.00;102446.00;4941552;28;20742;-74
2023/05/24 07:08:47;;;;;;;8.63;1.92;;;;;;;12.30;100.00;102441.28;4958275;28;20093;-75
2023/05/24 07:11:31;;;;;;;6.97;1.77;;;;;;;12.36;100.00;102443.75;4960904;28;20088;-75
2023/05/24 07:14:15;;;;;;;6.97;2.00;;;;;;;12.51;100.00;102441.59;4943590;28;20070;-73
2023/05/24 07:16:59;;;;;;;5.63;1.67;;;;;;;12.61;100.00;102447.50;4948984;28;20068;-73
2023/05/24 07:19:43;;;;;;;3.90;1.70;;;;;;;12.83;100.00;102444.22;4961197;28;20049;-74
2023/05/24 07:22:28;;;;;;;4.88;1.80;;;;;;;12.78;100.00;102447.03;4964676;28;20105;-74
2023/05/24 07:25:13;;;;;;;8.05;1.90;;;;;;;12.72;100.00;102439.22;4945682;28;20049;-75
2023/05/24 07:27:57;;;;;;;5.65;1.83;;;;;;;12.63;100.00;102440.38;4953692;28;20085;-75
2023/05/24 07:30:41;;;;;;;6.32;1.95;;;;;;;12.43;100.00;102443.59;4936106;28;20141;-75
2023/05/24 07:33:26;;;;;;;7.18;1.80;;;;;;;12.33;100.00;102449.13;4950920;28;20166;-75
2023/05/24 07:36:09;;;;;;;5.60;1.90;;;;;;;12.53;100.00;102438.91;4951249;28;21958;-74
2023/05/24 07:38:54;;;;;;;8.32;2.00;;;;;;;12.73;100.00;102440.97;4946365;28;20050;-75
2023/05/24 07:41:38;;;;;;;6.30;1.70;;;;;;;13.02;100.00;102445.41;4930936;28;20050;-74
2023/05/24 07:44:23;;;;;;;10.55;2.03;;;;;;;13.26;100.00;102439.41;4940300;28;20053;-74
2023/05/24 07:47:07;;;;;;;6.32;1.58;;;;;;;13.43;100.00;102439.75;4933741;28;20129;-74
2023/05/24 07:49:51;;;;;;;5.32;1.83;;;;;;;13.37;99.27;102431.06;4948656;28;20146;-76
2023/05/24 07:52:35;;;;;;;10.32;1.92;;;;;;;13.35;99.73;102438.25;4948027;28;20049;-76
2023/05/24 07:55:19;;;;;;;6.90;2.00;;;;;;;13.30;100.00;102443.72;4940885;28;20133;-77
2023/05/24 07:58:03;;;;;;;5.28;1.65;;;;;;;13.21;99.78;102438.66;4946798;28;20077;-76
2023/05/24 08:00:48;;;;;;;4.28;1.95;;;;;;;13.20;100.00;102443.13;4931615;28;20065;-76
2023/05/24 08:03:33;;;;;;;6.00;2.05;;;;;;;13.34;99.08;102440.03;4943520;28;20082;-78
2023/05/24 08:06:17;;;;;;;5.50;1.70;;;;;;;13.45;98.66;102437.00;4931607;28;20517;-77
2023/05/24 08:09:03;;;;;;;7.72;1.90;;;;;;;13.62;98.39;102430.31;4948450;28;20068;-77
2023/05/24 08:11:47;;;;;;;5.88;1.55;;;;;;;13.70;98.57;102434.47;4947459;28;20093;-78
2023/05/24 08:14:32;;;;;;;5.47;1.73;;;;;;;13.79;96.37;102443.91;4947169;28;20051;-77
2023/05/24 08:17:15;;;;;;;4.80;1.73;;;;;;;14.01;95.04;102442.31;4951608;28;20069;-77
2023/05/24 08:20:00;;;;;;;5.15;1.67;;;;;;;14.05;95.95;102444.81;4966222;28;20112;-77
2023/05/24 08:22:44;;;;;;;4.72;1.40;;;;;;;14.09;92.30;102440.25;4962283;28;20716;-77
2023/05/24 08:25:31;;;;;;;6.20;1.80;;;;;;;14.10;90.70;102447.31;4969995;28;20121;-76
2023/05/24 08:28:15;;;;;;;6.70;1.67;;;;;;;14.05;92.33;102454.63;4968665;28;21065;-77
2023/05/24 08:31:00;;;;;;;6.85;1.60;;;;;;;13.93;93.40;102464.75;4973086;28;20560;-78
2023/05/24 08:33:49;;;;;;;5.18;1.80;;;;;;;13.80;93.69;102458.09;4953354;28;20737;-78
2023/05/24 08:36:33;;;;;;;4.72;1.83;;;;;;;13.65;92.64;102465.69;4956348;28;20140;-78
2023/05/24 08:39:17;;;;;;;7.45;1.75;;;;;;;13.49;92.30;102467.09;4988651;28;20112;-77
2023/05/24 08:42:02;;;;;;;4.43;1.92;;;;;;;13.35;93.45;102470.16;4973075;28;20053;-78
2023/05/24 08:44:49;;;;;;;4.85;1.73;;;;;;;13.25;95.23;102473.09;4971850;28;20128;-77
2023/05/24 08:47:35;;;;;;;7.72;1.95;;;;;;;13.25;94.99;102480.22;4989287;28;20842;-78
2023/05/24 08:50:20;;;;;;;8.00;2.20;;;;;;;13.14;95.17;102484.06;4972344;28;20107;-77
2023/05/24 08:53:05;;;;;;;7.00;1.90;;;;;;;13.04;96.50;102485.25;4971635;28;20126;-77
2023/05/24 08:55:53;;;;;;;7.15;2.00;;;;;;;12.91;96.71;102487.41;4989167;28;20760;-76
2023/05/24 08:58:37;;;;;;;9.43;2.30;;;;;;;12.90;97.88;102493.63;4975516;28;20053;-76
2023/05/24 09:01:25;;;;;;;5.93;1.60;;;;;;;12.87;96.46;102496.41;4987177;28;20045;-76
2023/05/24 09:04:09;;;;;;;4.78;1.85;;;;;;;12.84;96.25;102492.03;4987515;28;20045;-76
2023/05/24 09:06:54;;;;;;;6.22;2.10;;;;;;;12.83;97.36;102498.28;4961226;28;20053;-76
2023/05/24 09:09:43;;;;;;;6.30;1.80;;;;;;;12.86;98.48;102490.19;4973463;28;20044;-77
2023/05/24 09:12:31;;;;;;;7.72;1.65;;;;;;;12.89;98.05;102495.44;4985958;28;20793;-77
2023/05/24 09:15:15;;;;;;;7.60;1.90;;;;;;;12.89;98.26;102495.44;4988290;28;20148;-77
2023/05/24 09:17:59;;;;;;;7.35;1.80;;;;;;;12.87;97.44;102491.94;4971181;28;20076;-77
2023/05/24 09:20:43;;;;;;;4.22;1.55;;;;;;;12.91;97.61;102495.38;4985797;28;20053;-76
2023/05/24 09:23:28;;;;;;;4.25;1.70;;;;;;;12.94;97.48;102487.31;4984431;28;20068;-77
2023/05/24 09:26:12;;;;;;;6.07;1.95;;;;;;;12.95;97.91;102494.38;4984662;28;20832;-78
2023/05/24 09:28:56;;;;;;;7.00;1.98;;;;;;;12.95;97.90;102491.72;4985655;28;20409;-76
2023/05/24 09:31:41;;;;;;;4.80;1.95;;;;;;;12.96;96.87;102489.94;4982540;28;20087;-75
2023/05/24 09:34:29;;;;;;;6.82;2.00;;;;;;;12.96;97.85;102497.91;4983963;28;20100;-76
2023/05/24 09:37:17;;;;;;;6.78;1.85;;;;;;;12.98;97.70;102499.63;4985876;28;20108;-75
2023/05/24 09:40:01;;;;;;;4.65;1.60;;;;;;;13.01;96.01;102495.97;4984516;28;20255;-76
2023/05/24 09:42:50;;;;;;;10.80;2.45;;;;;;;12.88;96.26;102488.38;4984543;28;20069;-79
2023/05/24 09:45:45;;;;;;;7.65;1.90;;;;;;;12.82;95.89;102485.91;4970053;28;20148;-75
2023/05/24 09:48:31;;;;;;;8.40;1.58;;;;;;;12.84;95.98;102492.03;4958286;28;20084;-76
2023/05/24 09:51:17;;;;;;;5.40;1.77;;;;;;;12.89;96.62;102499.88;4986655;28;20072;-76
2023/05/24 09:54:02;;;;;;;7.57;1.77;;;;;;;13.09;97.62;102498.41;4986170;28;20147;-80
2023/05/24 09:56:46;;;;;;;6.00;2.03;;;;;;;13.32;97.70;102495.06;4971239;28;20141;-76
2023/05/24 09:59:38;;;;;;;4.35;1.63;;;;;;;13.39;95.57;102496.63;4986945;28;20048;-76
2023/05/24 10:02:24;;;;;;;3.75;1.48;;;;;;;13.41;95.39;102502.75;4985000;28;20053;-77
2023/05/24 10:05:10;;;;;;;8.07;1.80;;;;;;;13.50;96.92;102500.78;4982442;28;20049;-76
2023/05/24 10:07:56;;;;;;;6.78;1.77;;;;;;;13.53;96.93;102493.56;4966604;28;20065;-78
2023/05/24 10:10:41;;;;;;;7.05;1.80;;;;;;;13.52;96.25;102505.09;4985147;28;20033;-80
2023/05/24 10:13:25;;;;;;;7.20;1.80;;;;;;;13.46;95.52;102500.00;4966900;28;20056;-76
2023/05/24 10:16:09;;;;;;;4.30;1.70;;;;;;;13.37;94.57;102501.13;4984500;28;20072;-76
2023/05/24 10:18:55;;;;;;;7.15;1.80;;;;;;;13.32;95.84;102503.03;4984409;28;20072;-76
2023/05/24 10:21:40;;;;;;;4.53;1.55;;;;;;;13.26;95.36;102501.44;4983664;28;20623;-76
2023/05/24 10:24:29;;;;;;;6.90;2.20;;;;;;;13.24;96.24;102507.72;4967325;28;20092;-76
2023/05/24 10:27:16;;;;;;;4.93;1.90;;;;;;;13.28;97.00;102504.03;4956167;28;20047;-77
2023/05/24 10:30:25;;;;;;;5.97;1.85;;;;;;;13.29;92.17;102514.66;4964264;28;20184;-78
2023/05/24 10:33:11;;;;;;;2.22;1.50;;;;;;;13.25;93.08;102506.81;4967814;28;20052;-76
2023/05/24 10:35:56;;;;;;;5.25;1.88;;;;;;;13.24;93.77;102505.91;4964361;28;21037;-76
2023/05/24 10:38:40;;;;;;;6.60;1.90;;;;;;;13.25;95.15;102502.34;4965836;28;20069;-76
2023/05/24 10:41:26;;;;;;;4.70;2.17;;;;;;;13.26;95.40;102492.59;4979621;28;20089;-80
2023/05/24 10:44:15;;;;;;;3.33;1.98;;;;;;;13.34;94.77;102498.53;4960586;28;20037;-80
2023/05/24 10:47:10;;;;;;;9.13;2.00;;;;;;;13.38;95.76;102507.28;4956398;28;20053;-79
2023/05/24 10:49:57;;;;;;;5.57;2.20;;;;;;;13.37;95.45;102500.22;4970641;28;20064;-79
2023/05/24 10:52:42;;;;;;;9.00;2.08;;;;;;;13.40;95.04;102503.66;4973950;28;20197;-81
2023/05/24 10:55:26;;;;;;;4.68;1.73;;;;;;;13.39;95.00;102501.94;4985529;28;20502;-78
2023/05/24 10:58:10;;;;;;;5.85;2.15;;;;;;;13.37;93.76;102497.56;4975890;28;20181;-79
2023/05/24 11:00:55;;;;;;;4.38;1.80;;;;;;;13.34;93.22;102501.19;4981162;28;20052;-79
2023/05/24 11:03:43;;;;;;;5.55;1.75;;;;;;;13.47;95.09;102506.19;4979652;28;20108;-79
2023/05/24 11:06:54;;;;;;;3.58;1.58;;;;;;;13.54;93.34;102495.31;4986834;28;20037;-78
2023/05/24 11:09:45;;;;;;;4.90;1.80;;;;;;;13.59;95.19;102505.78;4987266;28;20053;-85
2023/05/24 11:12:33;;;;;;;6.28;1.50;;;;;;;13.52;94.29;102489.13;4957391;28;20041;-74
2023/05/24 11:15:22;;;;;;;3.88;1.60;;;;;;;13.51;93.49;102495.38;4987951;28;20057;-76
2023/05/24 11:18:13;;;;;;;5.30;1.70;;;;;;;13.48;94.09;102492.84;4988242;28;20048;-76
2023/05/24 11:21:02;;;;;;;4.55;1.50;;;;;;;13.50;94.06;102495.44;4967191;28;20074;-75
2023/05/24 11:23:47;;;;;;;5.20;1.77;;;;;;;13.55;94.36;102485.50;4962898;28;20189;-75
2023/05/24 11:26:32;;;;;;;4.63;1.80;;;;;;;13.58;92.79;102494.25;4968104;28;20068;-76
2023/05/24 11:29:16;;;;;;;3.58;1.65;;;;;;;13.59;93.81;102484.50;4962708;28;20084;-75
2023/05/24 11:32:03;;;;;;;3.03;1.38;;;;;;;13.73;93.43;102501.81;4987558;28;20239;-75
2023/05/24 11:34:47;;;;;;;2.05;1.38;;;;;;;13.82;92.53;102490.88;4974282;28;20040;-75
2023/05/24 11:37:32;;;;;;;3.55;1.50;;;;;;;13.92;91.52;102487.00;4949600;28;20081;-74
2023/05/24 11:40:19;;;;;;;4.35;1.80;;;;;;;14.03;91.22;102499.06;4974635;28;20265;-77
2023/05/24 11:43:06;;;;;;;4.22;1.60;;;;;;;14.09;91.24;102489.06;4972714;28;20056;-82
2023/05/24 11:45:50;;;;;;;3.33;1.67;;;;;;;14.12;89.00;102490.78;4965586;28;20072;-76
2023/05/24 11:48:35;;;;;;;7.70;1.90;;;;;;;14.13;89.48;102490.69;4952585;28;20104;-76
2023/05/24 11:51:28;;;;;;;5.93;2.13;;;;;;;14.19;91.05;102492.28;4981549;28;20036;-75
2023/05/24 11:54:13;;;;;;;5.97;2.22;;;;;;;14.31;92.97;102492.78;4986378;28;20119;-74
2023/05/24 11:56:57;;;;;;;5.93;2.00;;;;;;;14.34;91.38;102482.03;4987009;28;20135;-75
2023/05/24 11:59:42;;;;;;;4.10;1.77;;;;;;;14.44;92.30;102488.75;4982498;28;20049;-74
2023/05/24 12:02:29;;;;;;;7.13;2.03;;;;;;;14.51;92.16;102484.94;4973988;28;20124;-75
2023/05/24 12:05:14;;;;;;;5.20;1.98;;;;;;;14.60;90.61;102490.88;4970121;28;20618;-74
2023/05/24 12:08:07;;;;;;;5.03;1.98;;;;;;;14.67;88.07;102495.06;4979906;28;20103;-74
2023/05/24 12:10:54;;;;;;;4.47;1.80;;;;;;;14.67;88.44;102495.06;4960126;28;20052;-75
2023/05/24 12:13:39;;;;;;;6.30;1.83;;;;;;;14.63;88.81;102494.31;4987262;28;20507;-74
2023/05/24 12:16:25;;;;;;;3.75;1.80;;;;;;;14.69;89.14;102493.19;4973266;28;20076;-75
2023/05/24 12:19:19;;;;;;;3.92;1.42;;;;;;;14.79;87.21;102497.31;4984966;28;20061;-75
2023/05/24 12:22:05;;;;;;;4.30;1.70;;;;;;;14.82;87.23;102493.63;4967802;28;20135;-74
2023/05/24 12:24:51;;;;;;;2.42;1.30;;;;;;;14.86;86.65;102486.44;4988791;28;20077;-75
2023/05/24 12:27:35;;;;;;;4.88;1.40;;;;;;;14.83;86.45;102497.19;4985993;28;20191;-75
2023/05/24 12:30:23;;;;;;;4.50;1.50;;;;;;;14.92;87.46;102496.81;4988728;28;20044;-75
2023/05/24 12:33:10;;;;;;;2.83;1.23;;;;;;;14.98;84.56;102487.75;4967050;28;20092;-75
2023/05/24 12:35:55;;;;;;;4.80;1.70;;;;;;;14.93;85.37;102483.44;4968479;28;20171;-75
2023/05/24 12:38:39;;;;;;;4.20;1.80;;;;;;;14.94;86.25;102489.66;4988697;28;20124;-75
2023/05/24 12:41:23;;;;;;;4.72;1.80;;;;;;;14.97;86.24;102497.53;4972895;28;20112;-75
2023/05/24 12:44:10;;;;;;;3.53;1.73;;;;;;;14.88;84.71;102493.41;4986929;28;20064;-75
2023/05/24 12:46:55;;;;;;;5.68;1.65;;;;;;;14.86;86.31;102502.44;4970931;28;20064;-76